RCFN

Taitung Airport

Taitung City, Taiwan
TAF RCFN 251700Z 2518/2618 35005KT 9999 FEW015 BKN032 BECMG 2600/2602 02008KT TEMPO 2605/2610 05013G23KT FEW010 FEW015TCU BKN020 BKN040 BECMG 2611/2613 35005KT
Issued Valid From Valid To
Sep-25 @ 17:00 UTC
(52 minutes ago)
Sep-25 @ 18:00 UTC
(in 8 minutes)
Sep-26 @ 18:00 UTC
(in 24 hours)
Sep-25 @ 18:00 to Sep-26 @ 00:00
TAF RCFN 251700Z 2518/2618 35005KT 9999 FEW015 BKN032
Wind Visibility Clouds
350° at 5 knots 10,000+ meters
  • Few at 1,500' AGL
  • Broken at 3,200' AGL
Becoming Sep-26 @ 00:00 to Sep-26 @ 11:00
BECMG 2600/2602 02008KT
Wind Visibility Clouds
20° at 8 knots 10,000+ meters
  • Few at 1,500' AGL
  • Broken at 3,200' AGL
Temporary Sep-26 @ 05:00 to Sep-26 @ 10:00
TEMPO 2605/2610 05013G23KT FEW010 FEW015TCU BKN020 BKN040
Wind Clouds
50° at 13 knots
 Gusting to 23 knots
  • Few at 1,000' AGL
  • Few at 1,500' AGL
  • Broken at 2,000' AGL
Becoming Sep-26 @ 11:00 to Sep-26 @ 18:00
BECMG 2611/2613 35005KT
Wind Visibility Clouds
350° at 5 knots 10,000+ meters
  • Few at 1,500' AGL
  • Broken at 3,200' AGL
TAF RCFN 251700Z 2518/2618 35005KT 9999 FEW015 BKN032 BECMG 2600/2602 02008KT TEMPO 2605/2610 05013G23KT FEW010 FEW015TCU BKN020 BKN040 BECMG 2611/2613 35005KT
Issued Sep-25 @ 17:00 UTC
(52 minutes ago)
Valid From Sep-25 @ 18:00 UTC
(in 8 minutes)
Valid To Sep-26 @ 18:00 UTC
(in 24 hours)
Sep-25 @ 18:00 - Sep-26 @ 00:00
Wind Visibility
350° at 5 knots 10,000+ meters
Clouds
  • Few at 1,500' AGL
  • Broken at 3,200' AGL
Becoming Sep-26 @ 00:00 - Sep-26 @ 11:00
Wind Visibility
20° at 8 knots 10,000+ meters
Clouds
  • Few at 1,500' AGL
  • Broken at 3,200' AGL
Temporary Sep-26 @ 05:00 - Sep-26 @ 10:00
Wind
50° at 13 knots
 Gusting to 23 knots
Clouds
  • Few at 1,000' AGL
  • Few at 1,500' AGL
  • Broken at 2,000' AGL
Becoming Sep-26 @ 11:00 - Sep-26 @ 18:00
Wind Visibility
350° at 5 knots 10,000+ meters
Clouds
  • Few at 1,500' AGL
  • Broken at 3,200' AGL